createdAt,value
2023-05-08T00:01:24.581Z,59.36
2023-05-08T00:04:26.190Z,59.58
2023-05-08T00:07:27.704Z,59.73
2023-05-08T00:10:29.806Z,59.58
2023-05-08T00:13:31.298Z,59.39
2023-05-08T00:16:32.902Z,59.53
2023-05-08T00:19:34.399Z,59.61
2023-05-08T00:22:36.287Z,59.82
2023-05-08T00:25:37.771Z,59.52
2023-05-08T00:28:39.247Z,59.78
2023-05-08T00:31:40.748Z,59.70
2023-05-08T00:34:42.684Z,59.48
2023-05-08T00:37:44.153Z,59.49
2023-05-08T00:40:46.018Z,59.64
2023-05-08T00:43:47.504Z,59.96
2023-05-08T00:46:49.237Z,59.76
2023-05-08T00:49:53.417Z,59.78
2023-05-08T00:52:56.687Z,59.81
2023-05-08T00:55:59.386Z,59.99
2023-05-08T00:59:01.522Z,60.08
2023-05-08T01:02:03.836Z,60.02
2023-05-08T01:05:06.266Z,60.20
2023-05-08T01:08:07.821Z,60.16
2023-05-08T01:11:15.281Z,60.17
2023-05-08T01:14:38.800Z,60.24
2023-05-08T01:17:52.748Z,60.11
2023-05-08T01:21:20.781Z,60.29
2023-05-08T01:24:32.171Z,60.15
2023-05-08T01:28:01.627Z,60.29
2023-05-08T01:31:07.911Z,60.36
2023-05-08T01:34:21.264Z,60.24
2023-05-08T01:37:32.847Z,60.42
2023-05-08T01:40:44.672Z,60.47
2023-05-08T01:43:53.623Z,60.72
2023-05-08T01:46:55.905Z,60.50
2023-05-08T01:50:16.468Z,60.62
2023-05-08T01:53:36.745Z,60.54
2023-05-08T01:56:41.292Z,60.64
2023-05-08T01:59:44.456Z,60.55
2023-05-08T02:02:47.804Z,60.78
2023-05-08T02:05:51.658Z,60.55
2023-05-08T02:08:57.636Z,60.61
2023-05-08T02:12:01.098Z,60.74
2023-05-08T02:15:03.974Z,60.78
2023-05-08T02:18:08.553Z,60.71
2023-05-08T02:21:12.693Z,60.76
2023-05-08T02:24:15.080Z,60.81
2023-05-08T02:27:17.432Z,60.85
2023-05-08T02:30:21.095Z,60.78
2023-05-08T02:33:23.119Z,60.63
2023-05-08T02:36:28.410Z,60.90
2023-05-08T02:39:35.093Z,60.73
2023-05-08T02:42:37.809Z,60.98
2023-05-08T02:46:24.753Z,61.09
2023-05-08T02:49:36.428Z,61.04
2023-05-08T02:52:47.202Z,60.93
2023-05-08T02:55:53.546Z,61.03
2023-05-08T02:59:14.456Z,60.92
2023-05-08T03:02:23.457Z,60.92
2023-05-08T03:05:38.314Z,60.92
2023-05-08T03:08:42.000Z,61.14
2023-05-08T03:11:47.240Z,61.15
2023-05-08T03:15:04.063Z,61.21
2023-05-08T03:18:13.760Z,61.36
2023-05-08T03:21:19.478Z,61.49
2023-05-08T03:24:24.093Z,61.49
2023-05-08T03:27:28.066Z,61.31
2023-05-08T03:30:31.487Z,61.19
2023-05-08T03:33:40.767Z,61.45
2023-05-08T03:36:42.596Z,61.31
2023-05-08T03:39:44.531Z,61.27
2023-05-08T03:42:47.133Z,61.40
2023-05-08T03:45:50.502Z,61.24
2023-05-08T03:48:53.736Z,61.25
2023-05-08T03:51:56.668Z,61.13
2023-05-08T03:54:58.422Z,61.17
2023-05-08T03:58:08.127Z,61.13
2023-05-08T04:01:32.425Z,61.12
2023-05-08T04:04:38.633Z,61.39
2023-05-08T04:07:50.893Z,61.18
2023-05-08T04:11:06.652Z,61.43
2023-05-08T04:14:13.352Z,61.54
2023-05-08T04:17:16.610Z,61.53
2023-05-08T04:20:22.141Z,61.42
2023-05-08T04:23:25.173Z,61.39
2023-05-08T04:26:29.396Z,61.31
2023-05-08T04:29:33.304Z,61.52
2023-05-08T04:32:36.412Z,61.29
2023-05-08T04:35:39.331Z,61.31
2023-05-08T04:38:41.663Z,61.40
2023-05-08T04:41:44.673Z,61.53
2023-05-08T04:44:48.139Z,61.61
2023-05-08T04:47:49.818Z,61.40
2023-05-08T04:50:51.711Z,61.47
2023-05-08T04:53:53.172Z,61.24
2023-05-08T04:56:54.758Z,61.29
2023-05-08T04:59:56.331Z,61.18
2023-05-08T05:02:58.916Z,61.14
2023-05-08T05:06:02.478Z,61.15
2023-05-08T05:09:05.134Z,61.13
2023-05-08T05:12:07.384Z,61.00
2023-05-08T05:15:10.690Z,60.94
2023-05-08T05:18:13.516Z,60.91
2023-05-08T05:21:15.124Z,61.01
2023-05-08T05:24:16.885Z,60.86
2023-05-08T05:27:21.179Z,60.92
2023-05-08T05:30:23.374Z,60.81
2023-05-08T05:33:25.220Z,60.99
2023-05-08T05:36:26.856Z,60.74
2023-05-08T05:39:28.552Z,60.79
2023-05-08T05:42:30.115Z,60.78
2023-05-08T05:45:33.623Z,60.72
2023-05-08T05:48:36.152Z,60.57
2023-05-08T05:51:37.935Z,60.78
2023-05-08T05:54:41.377Z,60.65
2023-05-08T05:57:43.372Z,61.02
2023-05-08T06:00:45.180Z,60.78
2023-05-08T06:03:47.515Z,60.70
2023-05-08T06:06:49.194Z,60.37
2023-05-08T06:09:51.158Z,60.66
2023-05-08T06:12:53.384Z,60.64
2023-05-08T06:15:58.876Z,60.48
2023-05-08T06:19:00.544Z,60.59
2023-05-08T06:22:02.973Z,60.50
2023-05-08T06:25:06.955Z,60.64
2023-05-08T06:28:08.429Z,60.45
2023-05-08T06:31:09.946Z,60.53
2023-05-08T06:34:11.587Z,60.90
2023-05-08T06:37:13.175Z,60.80
2023-05-08T06:40:14.911Z,60.70
2023-05-08T06:43:17.042Z,60.66
2023-05-08T06:46:18.630Z,60.73
2023-05-08T06:49:20.226Z,60.85
2023-05-08T06:52:21.854Z,60.75
2023-05-08T06:55:23.462Z,60.64
2023-05-08T06:58:24.973Z,60.63
2023-05-08T07:01:26.478Z,60.66
2023-05-08T07:04:29.093Z,60.95
2023-05-08T07:07:31.663Z,61.08
2023-05-08T07:10:33.288Z,61.02
2023-05-08T07:13:34.859Z,60.79
2023-05-08T07:16:37.619Z,60.77
2023-05-08T07:19:39.165Z,61.23
2023-05-08T07:22:40.704Z,61.24
2023-05-08T07:25:42.217Z,60.94
2023-05-08T07:28:43.716Z,60.87
2023-05-08T07:31:46.368Z,60.83
2023-05-08T07:34:47.951Z,60.88
2023-05-08T07:37:49.959Z,60.84
2023-05-08T07:40:53.100Z,60.98
2023-05-08T07:43:54.600Z,60.85
2023-05-08T07:46:56.147Z,61.00
2023-05-08T07:49:57.664Z,60.96
2023-05-08T07:52:59.119Z,61.04
2023-05-08T07:56:00.615Z,60.78
2023-05-08T07:59:02.130Z,60.84
2023-05-08T08:02:03.626Z,60.66
2023-05-08T08:05:06.034Z,60.84
2023-05-08T08:08:07.532Z,61.10
2023-05-08T08:11:09.138Z,61.12
2023-05-08T08:14:10.727Z,61.18
2023-05-08T08:17:12.277Z,61.06
2023-05-08T08:20:14.301Z,60.98
2023-05-08T08:23:15.770Z,60.85
2023-05-08T08:26:17.242Z,60.81
2023-05-08T08:29:18.790Z,61.03
2023-05-08T08:32:20.312Z,61.43
2023-05-08T08:35:26.425Z,60.93
2023-05-08T08:38:27.895Z,61.05
2023-05-08T08:41:29.531Z,60.99
2023-05-08T08:44:31.104Z,60.91
2023-05-08T08:47:41.234Z,60.81
2023-05-08T08:50:47.291Z,60.94
2023-05-08T08:53:51.027Z,60.93
2023-05-08T08:56:53.382Z,61.02
2023-05-08T08:59:56.023Z,60.82
2023-05-08T09:02:58.021Z,60.85
2023-05-08T09:06:01.507Z,60.91
2023-05-08T09:09:04.141Z,60.91
2023-05-08T09:12:05.970Z,60.88
2023-05-08T09:15:07.736Z,61.00
2023-05-08T09:18:09.257Z,61.08
2023-05-08T09:21:11.294Z,60.83
2023-05-08T09:24:12.872Z,60.92
2023-05-08T09:27:22.371Z,60.71
2023-05-08T09:30:23.951Z,60.94
2023-05-08T09:33:27.249Z,60.78
2023-05-08T09:36:29.198Z,60.85
2023-05-08T09:39:30.776Z,60.84
2023-05-08T09:42:38.776Z,60.78
2023-05-08T09:45:41.444Z,60.60
2023-05-08T09:48:42.985Z,60.82
2023-05-08T09:51:54.756Z,60.75
2023-05-08T09:55:01.742Z,60.64
2023-05-08T09:58:04.120Z,60.58
2023-05-08T10:01:05.796Z,60.74
2023-05-08T10:04:07.340Z,60.39
2023-05-08T10:07:08.907Z,60.83
2023-05-08T10:10:10.880Z,60.54
2023-05-08T10:13:12.826Z,60.57
2023-05-08T10:16:17.085Z,60.63
2023-05-08T10:19:20.725Z,60.65
2023-05-08T10:22:25.191Z,60.52
2023-05-08T10:25:32.174Z,60.37
2023-05-08T10:28:40.817Z,60.21
2023-05-08T10:31:45.120Z,60.11
2023-05-08T10:34:52.284Z,59.98
2023-05-08T10:37:54.984Z,59.63
2023-05-08T10:41:01.169Z,59.13
2023-05-08T10:44:03.595Z,59.35
2023-05-08T10:47:26.722Z,59.04
2023-05-08T10:50:59.046Z,58.39
2023-05-08T10:54:08.949Z,57.25
2023-05-08T10:57:11.919Z,56.75
2023-05-08T11:00:14.057Z,55.90
2023-05-08T11:03:29.893Z,55.98
2023-05-08T11:06:42.995Z,55.70
2023-05-08T11:09:48.242Z,55.33
2023-05-08T11:12:51.345Z,55.10
2023-05-08T11:15:52.939Z,54.95
2023-05-08T11:19:24.733Z,54.33
2023-05-08T11:22:28.949Z,54.24
2023-05-08T11:25:43.357Z,53.99
2023-05-08T11:28:54.332Z,54.05
2023-05-08T11:31:56.311Z,53.88
2023-05-08T11:34:57.846Z,53.83
2023-05-08T11:38:32.232Z,53.77
2023-05-08T11:41:33.907Z,53.87
2023-05-08T11:44:36.212Z,54.09
2023-05-08T11:47:42.656Z,54.04
2023-05-08T11:50:44.071Z,53.71
2023-05-08T11:53:45.870Z,53.73
2023-05-08T11:56:48.764Z,53.80
2023-05-08T11:59:51.867Z,53.78
2023-05-08T12:02:53.425Z,53.90
2023-05-08T12:05:58.986Z,53.65
2023-05-08T12:09:01.686Z,53.58
2023-05-08T12:12:03.278Z,53.61
2023-05-08T12:15:15.315Z,53.73
2023-05-08T12:18:17.283Z,53.90
2023-05-08T12:21:19.513Z,54.34
2023-05-08T12:24:25.339Z,54.25
2023-05-08T12:27:26.976Z,54.63
2023-05-08T12:30:28.623Z,54.65
2023-05-08T12:33:30.588Z,54.71
2023-05-08T12:36:36.467Z,55.23
2023-05-08T12:39:37.989Z,55.41
2023-05-08T12:42:48.520Z,55.40
2023-05-08T12:45:53.938Z,55.72
2023-05-08T12:49:04.494Z,55.71
2023-05-08T12:52:12.704Z,55.76
2023-05-08T12:55:25.975Z,55.90
2023-05-08T12:58:30.043Z,56.03
2023-05-08T13:01:31.624Z,55.62
2023-05-08T13:04:38.145Z,56.04
2023-05-08T13:07:40.068Z,56.27
2023-05-08T13:10:52.583Z,56.09
2023-05-08T13:13:54.105Z,56.48
2023-05-08T13:16:55.689Z,56.17
2023-05-08T13:19:57.327Z,56.29
2023-05-08T13:22:58.788Z,56.58
2023-05-08T13:26:00.507Z,56.44
2023-05-08T13:29:02.059Z,56.42
2023-05-08T13:32:03.715Z,56.25
2023-05-08T13:35:05.660Z,56.30
2023-05-08T13:38:07.178Z,56.33
2023-05-08T13:41:08.639Z,56.44
2023-05-08T13:44:10.151Z,56.24
2023-05-08T13:47:11.650Z,56.30
2023-05-08T13:50:16.072Z,56.36
2023-05-08T13:53:17.566Z,56.18
2023-05-08T13:56:19.036Z,56.26
2023-05-08T13:59:20.588Z,55.91
2023-05-08T14:02:22.344Z,56.06
2023-05-08T14:05:24.010Z,56.02
2023-05-08T14:08:25.675Z,55.65
2023-05-08T14:11:27.293Z,55.60
2023-05-08T14:14:28.762Z,55.56
2023-05-08T14:17:30.508Z,55.52
2023-05-08T14:20:31.977Z,55.67
2023-05-08T14:23:35.041Z,55.63
2023-05-08T14:26:36.548Z,55.78
2023-05-08T14:29:38.076Z,55.80
2023-05-08T14:32:39.510Z,56.00
2023-05-08T14:35:43.179Z,55.95
2023-05-08T14:38:44.653Z,55.87
2023-05-08T14:42:05.237Z,56.29
2023-05-08T14:45:08.368Z,56.18
2023-05-08T14:48:10.058Z,56.30
2023-05-08T14:51:13.760Z,56.54
2023-05-08T14:54:15.323Z,57.08
2023-05-08T14:57:16.875Z,56.55
2023-05-08T15:00:18.772Z,56.43
2023-05-08T15:03:20.397Z,56.45
2023-05-08T15:06:23.348Z,56.53
2023-05-08T15:09:24.832Z,56.47
2023-05-08T15:12:26.431Z,56.58
2023-05-08T15:15:27.999Z,56.54
2023-05-08T15:18:29.492Z,56.47
2023-05-08T15:21:31.117Z,56.87
2023-05-08T15:24:32.658Z,56.52
2023-05-08T15:27:34.120Z,56.66
2023-05-08T15:30:35.630Z,56.43
2023-05-08T15:33:37.138Z,56.67
2023-05-08T15:36:38.639Z,56.80
2023-05-08T15:39:40.390Z,56.57
2023-05-08T15:42:41.887Z,56.67
2023-05-08T15:45:43.381Z,56.65
2023-05-08T15:48:44.855Z,56.77
2023-05-08T15:51:46.358Z,56.29
2023-05-08T15:54:47.951Z,56.58
2023-05-08T15:57:49.484Z,56.48
2023-05-08T16:00:51.038Z,56.62
2023-05-08T16:03:52.519Z,55.87
2023-05-08T16:06:54.082Z,55.84
2023-05-08T16:09:55.604Z,55.99
2023-05-08T16:12:57.103Z,55.63
2023-05-08T16:16:04.174Z,55.64
2023-05-08T16:19:05.767Z,55.40
2023-05-08T16:22:07.307Z,55.37
2023-05-08T16:25:09.187Z,55.07
2023-05-08T16:28:10.637Z,54.98
2023-05-08T16:31:12.234Z,55.24
2023-05-08T16:34:13.755Z,54.84
2023-05-08T16:37:15.549Z,54.47
2023-05-08T16:40:17.106Z,54.37
2023-05-08T16:43:18.571Z,54.50
2023-05-08T16:46:29.228Z,54.71
2023-05-08T16:49:31.712Z,54.92
2023-05-08T16:52:33.230Z,54.71
2023-05-08T16:55:34.712Z,54.47
2023-05-08T16:58:36.992Z,54.58
2023-05-08T17:01:38.595Z,54.85
2023-05-08T17:04:40.168Z,54.51
2023-05-08T17:07:41.635Z,54.87
2023-05-08T17:10:43.152Z,55.00
2023-05-08T17:13:46.111Z,54.97
2023-05-08T17:16:47.641Z,55.13
2023-05-08T17:19:49.147Z,55.25
2023-05-08T17:22:53.086Z,55.12
2023-05-08T17:25:59.131Z,55.19
2023-05-08T17:29:00.693Z,55.48
2023-05-08T17:32:02.388Z,55.40
2023-05-08T17:35:04.151Z,55.52
2023-05-08T17:38:05.681Z,55.53
2023-05-08T17:41:07.184Z,55.71
2023-05-08T17:44:08.674Z,55.48
2023-05-08T17:47:10.262Z,55.65
2023-05-08T17:50:11.988Z,55.85
2023-05-08T17:53:13.802Z,55.76
2023-05-08T17:56:20.226Z,55.79
2023-05-08T17:59:21.729Z,55.76
2023-05-08T18:02:23.248Z,55.98
2023-05-08T18:05:24.870Z,56.01
2023-05-08T18:08:26.355Z,56.06
2023-05-08T18:11:28.009Z,56.11
2023-05-08T18:14:33.902Z,56.27
2023-05-08T18:17:35.465Z,56.34
2023-05-08T18:20:36.952Z,56.31
2023-05-08T18:23:38.519Z,56.45
2023-05-08T18:26:40.045Z,56.38
2023-05-08T18:29:41.542Z,56.69
2023-05-08T18:32:43.276Z,56.75
2023-05-08T18:35:45.067Z,56.64
2023-05-08T18:38:46.600Z,56.82
2023-05-08T18:41:48.070Z,56.90
2023-05-08T18:44:49.582Z,56.92
2023-05-08T18:47:52.360Z,56.97
2023-05-08T18:50:58.252Z,56.94
2023-05-08T18:54:00.245Z,57.08
2023-05-08T18:57:04.231Z,57.20
2023-05-08T19:00:06.250Z,57.17
2023-05-08T19:03:07.845Z,57.09
2023-05-08T19:06:09.388Z,57.06
2023-05-08T19:09:11.201Z,57.03
2023-05-08T19:12:12.658Z,57.22
2023-05-08T19:15:14.549Z,57.06
2023-05-08T19:18:17.026Z,56.89
2023-05-08T19:21:18.513Z,57.39
2023-05-08T19:24:21.078Z,56.96
2023-05-08T19:27:22.577Z,56.82
2023-05-08T19:30:24.247Z,56.97
2023-05-08T19:33:25.729Z,57.05
2023-05-08T19:36:27.200Z,57.41
2023-05-08T19:39:28.680Z,57.03
2023-05-08T19:42:30.922Z,57.26
2023-05-08T19:45:32.450Z,57.21
2023-05-08T19:48:33.987Z,56.85
2023-05-08T19:51:35.638Z,57.14
2023-05-08T19:54:37.377Z,57.02
2023-05-08T19:57:38.816Z,57.23
2023-05-08T20:00:40.289Z,57.33
2023-05-08T20:03:41.881Z,57.21
2023-05-08T20:06:43.524Z,56.96
2023-05-08T20:09:44.986Z,57.02
2023-05-08T20:12:46.553Z,56.95
2023-05-08T20:15:48.178Z,56.90
2023-05-08T20:18:49.737Z,56.72
2023-05-08T20:21:51.212Z,56.64
2023-05-08T20:24:52.716Z,56.78
2023-05-08T20:27:54.589Z,56.81
2023-05-08T20:30:56.186Z,56.79
2023-05-08T20:33:59.443Z,57.11
2023-05-08T20:37:00.938Z,56.79
2023-05-08T20:40:04.696Z,57.03
2023-05-08T20:43:06.333Z,57.15
2023-05-08T20:46:08.184Z,57.04
2023-05-08T20:49:09.716Z,57.03
2023-05-08T20:52:11.172Z,57.05
2023-05-08T20:55:12.778Z,57.18
2023-05-08T20:58:14.433Z,57.11
2023-05-08T21:01:16.963Z,57.29
2023-05-08T21:04:20.176Z,57.13
2023-05-08T21:07:21.668Z,57.20
2023-05-08T21:10:23.826Z,57.15
2023-05-08T21:13:25.476Z,57.22
2023-05-08T21:16:27.139Z,57.61
2023-05-08T21:19:31.399Z,57.56
2023-05-08T21:22:33.903Z,57.32
2023-05-08T21:25:49.823Z,57.48
2023-05-08T21:28:52.459Z,57.64
2023-05-08T21:31:54.235Z,57.89
2023-05-08T21:34:56.181Z,57.70
2023-05-08T21:37:57.779Z,57.71
2023-05-08T21:41:06.526Z,57.85
2023-05-08T21:44:10.392Z,57.93
2023-05-08T21:47:11.945Z,57.98
2023-05-08T21:50:13.422Z,57.94
2023-05-08T21:53:14.924Z,58.17
2023-05-08T21:56:16.824Z,58.09
2023-05-08T21:59:18.605Z,58.05
2023-05-08T22:02:20.250Z,57.93
2023-05-08T22:05:23.373Z,58.21
2023-05-08T22:08:24.854Z,58.27
2023-05-08T22:11:26.343Z,58.04
2023-05-08T22:14:27.862Z,58.22
2023-05-08T22:17:29.427Z,58.55
2023-05-08T22:20:30.998Z,58.33
2023-05-08T22:23:34.257Z,58.26
2023-05-08T22:26:35.757Z,58.44
2023-05-08T22:29:37.273Z,58.08
2023-05-08T22:32:38.853Z,58.14
2023-05-08T22:35:40.484Z,58.14
2023-05-08T22:38:41.956Z,58.60
2023-05-08T22:41:43.677Z,58.29
2023-05-08T22:44:45.728Z,58.24
2023-05-08T22:47:47.474Z,58.42
2023-05-08T22:50:49.678Z,58.56
2023-05-08T22:53:51.403Z,58.38
2023-05-08T22:56:52.888Z,58.18
2023-05-08T22:59:54.323Z,58.56
2023-05-08T23:02:56.585Z,58.28
2023-05-08T23:05:58.205Z,57.96
2023-05-08T23:08:59.731Z,58.51
2023-05-08T23:12:01.321Z,58.46
2023-05-08T23:15:03.474Z,58.40
2023-05-08T23:18:05.103Z,58.63
2023-05-08T23:21:08.011Z,58.44
2023-05-08T23:24:09.531Z,58.43
2023-05-08T23:27:11.699Z,58.49
2023-05-08T23:30:13.526Z,58.65
2023-05-08T23:33:15.021Z,58.65
2023-05-08T23:36:16.700Z,58.56
2023-05-08T23:39:18.256Z,58.30
2023-05-08T23:42:20.490Z,58.31
2023-05-08T23:45:22.281Z,58.33
2023-05-08T23:48:25.577Z,58.44
2023-05-08T23:51:27.022Z,58.46
2023-05-08T23:54:28.529Z,58.44
2023-05-08T23:57:30.005Z,58.25
